sensor_id;sensor_type;location;lat;lon;timestamp;P1;durP1;ratioP1;P2;durP2;ratioP2
50569;SDS011;36525;49.398;7.614;2022-08-04T00:00:06;2.67;;;2.03;;
50569;SDS011;36525;49.398;7.614;2022-08-04T00:02:54;2.90;;;1.70;;
50569;SDS011;36525;49.398;7.614;2022-08-04T00:06:04;4.80;;;2.13;;
50569;SDS011;36525;49.398;7.614;2022-08-04T00:09:01;3.35;;;2.05;;
50569;SDS011;36525;49.398;7.614;2022-08-04T00:11:44;4.38;;;2.58;;
50569;SDS011;36525;49.398;7.614;2022-08-04T00:14:13;4.38;;;2.75;;
50569;SDS011;36525;49.398;7.614;2022-08-04T00:16:42;3.70;;;2.53;;
50569;SDS011;36525;49.398;7.614;2022-08-04T00:19:20;3.25;;;2.25;;
50569;SDS011;36525;49.398;7.614;2022-08-04T00:21:50;7.03;;;2.42;;
50569;SDS011;36525;49.398;7.614;2022-08-04T00:24:23;2.95;;;1.85;;
50569;SDS011;36525;49.398;7.614;2022-08-04T00:26:52;4.50;;;2.10;;
50569;SDS011;36525;49.398;7.614;2022-08-04T00:29:20;4.38;;;2.35;;
50569;SDS011;36525;49.398;7.614;2022-08-04T00:31:48;7.80;;;1.90;;
50569;SDS011;36525;49.398;7.614;2022-08-04T00:34:23;4.80;;;2.10;;
50569;SDS011;36525;49.398;7.614;2022-08-04T00:36:53;6.00;;;2.70;;
50569;SDS011;36525;49.398;7.614;2022-08-04T00:39:21;3.67;;;2.45;;
50569;SDS011;36525;49.398;7.614;2022-08-04T00:44:59;3.35;;;2.30;;
50569;SDS011;36525;49.398;7.614;2022-08-04T00:48:24;3.67;;;2.30;;
50569;SDS011;36525;49.398;7.614;2022-08-04T00:51:32;3.35;;;1.60;;
50569;SDS011;36525;49.398;7.614;2022-08-04T01:00:19;4.85;;;2.45;;
50569;SDS011;36525;49.398;7.614;2022-08-04T01:05:20;3.95;;;2.03;;
50569;SDS011;36525;49.398;7.614;2022-08-04T01:17:39;5.90;;;2.17;;
50569;SDS011;36525;49.398;7.614;2022-08-04T01:20:29;3.28;;;2.03;;
50569;SDS011;36525;49.398;7.614;2022-08-04T01:23:17;3.15;;;2.33;;
50569;SDS011;36525;49.398;7.614;2022-08-04T01:29:23;3.03;;;1.90;;
50569;SDS011;36525;49.398;7.614;2022-08-04T01:34:52;3.95;;;1.65;;
50569;SDS011;36525;49.398;7.614;2022-08-04T01:40:26;4.28;;;1.95;;
50569;SDS011;36525;49.398;7.614;2022-08-04T01:42:54;3.22;;;1.60;;
50569;SDS011;36525;49.398;7.614;2022-08-04T01:45:23;3.15;;;1.80;;
50569;SDS011;36525;49.398;7.614;2022-08-04T01:47:53;4.03;;;1.70;;
50569;SDS011;36525;49.398;7.614;2022-08-04T01:50:23;2.53;;;1.40;;
50569;SDS011;36525;49.398;7.614;2022-08-04T01:52:54;3.42;;;1.55;;
50569;SDS011;36525;49.398;7.614;2022-08-04T01:55:22;3.45;;;1.50;;
50569;SDS011;36525;49.398;7.614;2022-08-04T01:58:11;2.10;;;1.48;;
50569;SDS011;36525;49.398;7.614;2022-08-04T02:00:39;2.72;;;1.33;;
50569;SDS011;36525;49.398;7.614;2022-08-04T02:03:22;4.28;;;1.50;;
50569;SDS011;36525;49.398;7.614;2022-08-04T02:09:29;2.33;;;1.35;;
50569;SDS011;36525;49.398;7.614;2022-08-04T02:15:17;3.15;;;1.02;;
50569;SDS011;36525;49.398;7.614;2022-08-04T02:18:02;2.85;;;1.30;;
50569;SDS011;36525;49.398;7.614;2022-08-04T02:20:57;1.77;;;1.38;;
50569;SDS011;36525;49.398;7.614;2022-08-04T02:26:16;2.20;;;1.40;;
50569;SDS011;36525;49.398;7.614;2022-08-04T02:32:04;1.98;;;1.23;;
50569;SDS011;36525;49.398;7.614;2022-08-04T02:37:47;3.38;;;1.30;;
50569;SDS011;36525;49.398;7.614;2022-08-04T02:40:28;2.28;;;1.50;;
50569;SDS011;36525;49.398;7.614;2022-08-04T02:42:57;2.60;;;1.48;;
50569;SDS011;36525;49.398;7.614;2022-08-04T02:45:25;2.53;;;1.45;;
50569;SDS011;36525;49.398;7.614;2022-08-04T02:47:54;3.55;;;1.50;;
50569;SDS011;36525;49.398;7.614;2022-08-04T02:50:43;2.33;;;1.70;;
50569;SDS011;36525;49.398;7.614;2022-08-04T02:53:11;3.20;;;1.70;;
50569;SDS011;36525;49.398;7.614;2022-08-04T02:55:43;3.10;;;1.80;;
50569;SDS011;36525;49.398;7.614;2022-08-04T02:58:21;3.50;;;1.95;;
50569;SDS011;36525;49.398;7.614;2022-08-04T03:00:51;3.22;;;2.15;;
50569;SDS011;36525;49.398;7.614;2022-08-04T03:03:33;2.25;;;1.52;;
50569;SDS011;36525;49.398;7.614;2022-08-04T03:23:23;4.25;;;2.00;;
50569;SDS011;36525;49.398;7.614;2022-08-04T03:41:13;4.23;;;2.40;;
50569;SDS011;36525;49.398;7.614;2022-08-04T03:44:34;3.92;;;3.10;;
50569;SDS011;36525;49.398;7.614;2022-08-04T03:50:40;4.80;;;2.35;;
50569;SDS011;36525;49.398;7.614;2022-08-04T03:54:24;3.20;;;2.22;;
50569;SDS011;36525;49.398;7.614;2022-08-04T04:03:00;3.97;;;2.30;;
50569;SDS011;36525;49.398;7.614;2022-08-04T04:05:58;3.45;;;2.50;;
50569;SDS011;36525;49.398;7.614;2022-08-04T04:15:02;3.97;;;2.03;;
50569;SDS011;36525;49.398;7.614;2022-08-04T04:21:20;3.85;;;1.90;;
50569;SDS011;36525;49.398;7.614;2022-08-04T04:24:38;4.90;;;2.15;;
50569;SDS011;36525;49.398;7.614;2022-08-04T04:29:51;2.85;;;1.90;;
50569;SDS011;36525;49.398;7.614;2022-08-04T04:32:38;3.00;;;2.22;;
50569;SDS011;36525;49.398;7.614;2022-08-04T04:35:48;2.72;;;1.92;;
50569;SDS011;36525;49.398;7.614;2022-08-04T04:56:42;3.15;;;1.77;;
50569;SDS011;36525;49.398;7.614;2022-08-04T04:59:18;4.07;;;1.98;;
50569;SDS011;36525;49.398;7.614;2022-08-04T05:13:48;3.53;;;2.28;;
50569;SDS011;36525;49.398;7.614;2022-08-04T05:16:46;3.00;;;1.88;;
50569;SDS011;36525;49.398;7.614;2022-08-04T05:24:41;4.38;;;2.40;;
50569;SDS011;36525;49.398;7.614;2022-08-04T05:27:13;4.97;;;2.17;;
50569;SDS011;36525;49.398;7.614;2022-08-04T05:29:51;2.65;;;1.80;;
50569;SDS011;36525;49.398;7.614;2022-08-04T05:32:23;4.35;;;1.70;;
50569;SDS011;36525;49.398;7.614;2022-08-04T05:34:57;2.88;;;1.90;;
50569;SDS011;36525;49.398;7.614;2022-08-04T05:37:32;3.42;;;1.42;;
50569;SDS011;36525;49.398;7.614;2022-08-04T05:40:04;4.27;;;1.40;;
50569;SDS011;36525;49.398;7.614;2022-08-04T05:42:36;2.63;;;1.50;;
50569;SDS011;36525;49.398;7.614;2022-08-04T05:45:05;3.67;;;1.90;;
50569;SDS011;36525;49.398;7.614;2022-08-04T05:47:35;3.40;;;1.90;;
50569;SDS011;36525;49.398;7.614;2022-08-04T05:50:03;4.85;;;1.90;;
50569;SDS011;36525;49.398;7.614;2022-08-04T05:52:34;3.40;;;1.88;;
50569;SDS011;36525;49.398;7.614;2022-08-04T05:55:02;2.90;;;1.67;;
50569;SDS011;36525;49.398;7.614;2022-08-04T05:57:31;3.25;;;2.20;;
50569;SDS011;36525;49.398;7.614;2022-08-04T05:59:59;2.60;;;1.65;;
50569;SDS011;36525;49.398;7.614;2022-08-04T06:02:50;2.97;;;1.83;;
50569;SDS011;36525;49.398;7.614;2022-08-04T06:05:19;6.68;;;1.80;;
50569;SDS011;36525;49.398;7.614;2022-08-04T06:07:46;5.18;;;2.10;;
50569;SDS011;36525;49.398;7.614;2022-08-04T06:10:36;3.15;;;1.70;;
50569;SDS011;36525;49.398;7.614;2022-08-04T06:13:06;4.18;;;2.00;;
50569;SDS011;36525;49.398;7.614;2022-08-04T06:15:57;2.28;;;1.50;;
50569;SDS011;36525;49.398;7.614;2022-08-04T06:18:28;2.95;;;1.50;;
50569;SDS011;36525;49.398;7.614;2022-08-04T06:21:16;3.25;;;1.30;;
50569;SDS011;36525;49.398;7.614;2022-08-04T06:23:46;3.45;;;1.35;;
50569;SDS011;36525;49.398;7.614;2022-08-04T06:26:27;3.28;;;1.23;;
50569;SDS011;36525;49.398;7.614;2022-08-04T06:28:58;4.60;;;1.40;;
50569;SDS011;36525;49.398;7.614;2022-08-04T06:31:27;2.33;;;1.40;;
50569;SDS011;36525;49.398;7.614;2022-08-04T06:34:28;5.05;;;1.70;;
50569;SDS011;36525;49.398;7.614;2022-08-04T06:36:57;4.50;;;1.73;;
50569;SDS011;36525;49.398;7.614;2022-08-04T06:39:25;4.97;;;1.33;;
50569;SDS011;36525;49.398;7.614;2022-08-04T06:41:55;4.40;;;1.50;;
50569;SDS011;36525;49.398;7.614;2022-08-04T06:44:43;3.15;;;1.40;;
50569;SDS011;36525;49.398;7.614;2022-08-04T06:47:16;3.50;;;1.15;;
50569;SDS011;36525;49.398;7.614;2022-08-04T06:49:45;1.75;;;1.02;;
50569;SDS011;36525;49.398;7.614;2022-08-04T06:52:35;2.95;;;1.27;;
50569;SDS011;36525;49.398;7.614;2022-08-04T06:55:04;2.00;;;1.33;;
50569;SDS011;36525;49.398;7.614;2022-08-04T06:57:33;6.97;;;1.45;;
50569;SDS011;36525;49.398;7.614;2022-08-04T07:00:08;4.03;;;1.20;;
50569;SDS011;36525;49.398;7.614;2022-08-04T07:02:47;3.60;;;1.23;;
50569;SDS011;36525;49.398;7.614;2022-08-04T07:05:17;2.35;;;1.02;;
50569;SDS011;36525;49.398;7.614;2022-08-04T07:07:45;3.88;;;1.10;;
50569;SDS011;36525;49.398;7.614;2022-08-04T07:10:24;1.67;;;1.10;;
50569;SDS011;36525;49.398;7.614;2022-08-04T07:12:58;2.83;;;1.17;;
50569;SDS011;36525;49.398;7.614;2022-08-04T07:15:26;5.32;;;1.77;;
50569;SDS011;36525;49.398;7.614;2022-08-04T07:17:54;1.73;;;1.00;;
50569;SDS011;36525;49.398;7.614;2022-08-04T07:20:25;1.80;;;0.98;;
50569;SDS011;36525;49.398;7.614;2022-08-04T07:23:04;2.03;;;1.05;;
50569;SDS011;36525;49.398;7.614;2022-08-04T07:25:33;2.88;;;1.00;;
50569;SDS011;36525;49.398;7.614;2022-08-04T07:28:22;1.45;;;0.82;;
50569;SDS011;36525;49.398;7.614;2022-08-04T07:30:54;3.22;;;0.95;;
50569;SDS011;36525;49.398;7.614;2022-08-04T07:33:23;2.15;;;0.88;;
50569;SDS011;36525;49.398;7.614;2022-08-04T07:35:52;4.85;;;1.08;;
50569;SDS011;36525;49.398;7.614;2022-08-04T07:38:40;1.63;;;0.70;;
50569;SDS011;36525;49.398;7.614;2022-08-04T07:41:19;3.22;;;1.10;;
50569;SDS011;36525;49.398;7.614;2022-08-04T07:44:04;2.53;;;0.88;;
50569;SDS011;36525;49.398;7.614;2022-08-04T07:46:33;4.55;;;1.08;;
50569;SDS011;36525;49.398;7.614;2022-08-04T07:49:04;2.70;;;0.80;;
50569;SDS011;36525;49.398;7.614;2022-08-04T07:51:33;2.22;;;0.90;;
50569;SDS011;36525;49.398;7.614;2022-08-04T07:54:02;4.13;;;0.90;;
50569;SDS011;36525;49.398;7.614;2022-08-04T07:56:34;2.42;;;1.00;;
50569;SDS011;36525;49.398;7.614;2022-08-04T07:59:04;2.58;;;0.80;;
50569;SDS011;36525;49.398;7.614;2022-08-04T08:01:35;2.83;;;0.98;;
50569;SDS011;36525;49.398;7.614;2022-08-04T08:04:05;1.13;;;0.70;;
50569;SDS011;36525;49.398;7.614;2022-08-04T08:06:36;2.05;;;0.82;;
50569;SDS011;36525;49.398;7.614;2022-08-04T08:09:10;2.67;;;0.93;;
50569;SDS011;36525;49.398;7.614;2022-08-04T08:11:48;2.30;;;0.90;;
50569;SDS011;36525;49.398;7.614;2022-08-04T08:14:37;3.75;;;1.00;;
50569;SDS011;36525;49.398;7.614;2022-08-04T08:17:05;3.05;;;0.90;;
50569;SDS011;36525;49.398;7.614;2022-08-04T08:19:33;1.48;;;0.90;;
50569;SDS011;36525;49.398;7.614;2022-08-04T08:22:01;3.75;;;0.90;;
50569;SDS011;36525;49.398;7.614;2022-08-04T08:24:29;3.00;;;1.00;;
50569;SDS011;36525;49.398;7.614;2022-08-04T08:27:00;2.95;;;1.00;;
50569;SDS011;36525;49.398;7.614;2022-08-04T08:29:32;2.80;;;1.00;;
50569;SDS011;36525;49.398;7.614;2022-08-04T08:32:01;2.00;;;0.82;;
50569;SDS011;36525;49.398;7.614;2022-08-04T08:34:34;1.98;;;0.90;;
50569;SDS011;36525;49.398;7.614;2022-08-04T08:37:12;4.18;;;1.08;;
50569;SDS011;36525;49.398;7.614;2022-08-04T08:49:51;2.35;;;0.90;;
50569;SDS011;36525;49.398;7.614;2022-08-04T08:52:48;1.70;;;0.80;;
50569;SDS011;36525;49.398;7.614;2022-08-04T08:58:42;2.60;;;1.00;;
50569;SDS011;36525;49.398;7.614;2022-08-04T09:11:05;1.80;;;0.70;;
50569;SDS011;36525;49.398;7.614;2022-08-04T09:13:56;3.90;;;0.82;;
50569;SDS011;36525;49.398;7.614;2022-08-04T09:30:14;1.55;;;0.70;;
50569;SDS011;36525;49.398;7.614;2022-08-04T09:39:35;1.90;;;0.70;;
50569;SDS011;36525;49.398;7.614;2022-08-04T09:43:11;1.52;;;0.60;;
50569;SDS011;36525;49.398;7.614;2022-08-04T09:46:25;2.83;;;0.70;;
50569;SDS011;36525;49.398;7.614;2022-08-04T09:49:18;2.28;;;0.70;;
50569;SDS011;36525;49.398;7.614;2022-08-04T10:00:05;1.27;;;0.50;;
50569;SDS011;36525;49.398;7.614;2022-08-04T10:02:38;1.17;;;0.40;;
50569;SDS011;36525;49.398;7.614;2022-08-04T10:05:20;1.10;;;0.50;;
50569;SDS011;36525;49.398;7.614;2022-08-04T10:08:00;0.55;;;0.40;;
50569;SDS011;36525;49.398;7.614;2022-08-04T10:11:05;3.85;;;0.63;;
50569;SDS011;36525;49.398;7.614;2022-08-04T10:17:10;1.17;;;0.50;;
50569;SDS011;36525;49.398;7.614;2022-08-04T10:23:00;0.73;;;0.40;;
50569;SDS011;36525;49.398;7.614;2022-08-04T10:25:48;1.48;;;0.40;;
50569;SDS011;36525;49.398;7.614;2022-08-04T10:28:39;1.92;;;0.52;;
50569;SDS011;36525;49.398;7.614;2022-08-04T10:31:14;1.30;;;0.52;;
50569;SDS011;36525;49.398;7.614;2022-08-04T10:33:49;3.72;;;0.40;;
50569;SDS011;36525;49.398;7.614;2022-08-04T10:36:26;2.60;;;0.45;;
50569;SDS011;36525;49.398;7.614;2022-08-04T10:39:00;3.30;;;0.47;;
50569;SDS011;36525;49.398;7.614;2022-08-04T10:47:23;1.48;;;0.50;;
50569;SDS011;36525;49.398;7.614;2022-08-04T10:50:00;4.13;;;0.47;;
50569;SDS011;36525;49.398;7.614;2022-08-04T10:52:44;2.38;;;0.75;;
50569;SDS011;36525;49.398;7.614;2022-08-04T10:55:22;1.60;;;0.60;;
50569;SDS011;36525;49.398;7.614;2022-08-04T10:58:29;1.95;;;0.50;;
50569;SDS011;36525;49.398;7.614;2022-08-04T11:01:36;2.00;;;0.50;;
50569;SDS011;36525;49.398;7.614;2022-08-04T11:04:40;1.00;;;0.40;;
50569;SDS011;36525;49.398;7.614;2022-08-04T11:07:12;2.22;;;0.40;;
50569;SDS011;36525;49.398;7.614;2022-08-04T11:09:42;1.23;;;0.50;;
50569;SDS011;36525;49.398;7.614;2022-08-04T11:12:16;2.63;;;0.40;;
50569;SDS011;36525;49.398;7.614;2022-08-04T11:15:00;1.70;;;0.40;;
50569;SDS011;36525;49.398;7.614;2022-08-04T11:17:35;2.13;;;0.40;;
50569;SDS011;36525;49.398;7.614;2022-08-04T11:23:07;1.67;;;0.47;;
50569;SDS011;36525;49.398;7.614;2022-08-04T11:28:26;1.55;;;0.38;;
50569;SDS011;36525;49.398;7.614;2022-08-04T11:31:10;1.17;;;0.30;;
50569;SDS011;36525;49.398;7.614;2022-08-04T11:34:17;1.20;;;0.40;;
50569;SDS011;36525;49.398;7.614;2022-08-04T11:42:37;2.10;;;0.40;;
50569;SDS011;36525;49.398;7.614;2022-08-04T11:45:12;5.40;;;0.45;;
50569;SDS011;36525;49.398;7.614;2022-08-04T11:47:47;0.88;;;0.35;;
50569;SDS011;36525;49.398;7.614;2022-08-04T11:50:42;0.70;;;0.38;;
50569;SDS011;36525;49.398;7.614;2022-08-04T11:53:23;3.80;;;0.50;;
50569;SDS011;36525;49.398;7.614;2022-08-04T11:56:03;0.82;;;0.40;;
50569;SDS011;36525;49.398;7.614;2022-08-04T11:58:36;1.55;;;0.50;;
50569;SDS011;36525;49.398;7.614;2022-08-04T12:01:12;5.07;;;0.60;;
50569;SDS011;36525;49.398;7.614;2022-08-04T12:06:51;1.13;;;0.40;;
50569;SDS011;36525;49.398;7.614;2022-08-04T12:18:48;1.83;;;0.45;;
50569;SDS011;36525;49.398;7.614;2022-08-04T12:21:34;3.47;;;0.40;;
50569;SDS011;36525;49.398;7.614;2022-08-04T12:24:22;2.55;;;0.50;;
50569;SDS011;36525;49.398;7.614;2022-08-04T12:27:06;0.83;;;0.37;;
50569;SDS011;36525;49.398;7.614;2022-08-04T12:29:39;3.45;;;0.50;;
50569;SDS011;36525;49.398;7.614;2022-08-04T12:35:28;2.95;;;0.50;;
50569;SDS011;36525;49.398;7.614;2022-08-04T12:38:11;1.35;;;0.40;;
50569;SDS011;36525;49.398;7.614;2022-08-04T12:40:46;1.85;;;0.32;;
50569;SDS011;36525;49.398;7.614;2022-08-04T12:43:18;1.90;;;0.50;;
50569;SDS011;36525;49.398;7.614;2022-08-04T12:45:57;1.92;;;0.47;;
50569;SDS011;36525;49.398;7.614;2022-08-04T12:48:29;0.88;;;0.40;;
50569;SDS011;36525;49.398;7.614;2022-08-04T12:51:00;2.88;;;0.40;;
50569;SDS011;36525;49.398;7.614;2022-08-04T12:53:29;0.85;;;0.47;;
50569;SDS011;36525;49.398;7.614;2022-08-04T12:56:21;2.65;;;0.45;;
50569;SDS011;36525;49.398;7.614;2022-08-04T12:58:52;0.85;;;0.40;;
50569;SDS011;36525;49.398;7.614;2022-08-04T13:01:38;4.95;;;0.52;;
50569;SDS011;36525;49.398;7.614;2022-08-04T13:04:32;1.92;;;0.50;;
50569;SDS011;36525;49.398;7.614;2022-08-04T13:07:15;3.80;;;0.40;;
50569;SDS011;36525;49.398;7.614;2022-08-04T13:09:46;0.80;;;0.40;;
50569;SDS011;36525;49.398;7.614;2022-08-04T13:12:15;3.40;;;0.45;;
50569;SDS011;36525;49.398;7.614;2022-08-04T13:14:59;1.33;;;0.40;;
50569;SDS011;36525;49.398;7.614;2022-08-04T13:17:45;2.05;;;0.47;;
50569;SDS011;36525;49.398;7.614;2022-08-04T13:20:40;1.23;;;0.40;;
50569;SDS011;36525;49.398;7.614;2022-08-04T13:23:11;5.53;;;0.70;;
50569;SDS011;36525;49.398;7.614;2022-08-04T13:25:47;1.05;;;0.40;;
50569;SDS011;36525;49.398;7.614;2022-08-04T13:28:38;3.30;;;0.60;;
50569;SDS011;36525;49.398;7.614;2022-08-04T13:31:10;0.80;;;0.30;;
50569;SDS011;36525;49.398;7.614;2022-08-04T13:33:46;1.10;;;0.40;;
50569;SDS011;36525;49.398;7.614;2022-08-04T13:36:16;1.83;;;0.40;;
50569;SDS011;36525;49.398;7.614;2022-08-04T13:38:50;3.42;;;0.60;;
50569;SDS011;36525;49.398;7.614;2022-08-04T13:41:21;1.55;;;0.50;;
50569;SDS011;36525;49.398;7.614;2022-08-04T13:43:56;1.73;;;0.40;;
50569;SDS011;36525;49.398;7.614;2022-08-04T13:46:46;2.00;;;0.40;;
50569;SDS011;36525;49.398;7.614;2022-08-04T13:49:17;1.95;;;0.55;;
50569;SDS011;36525;49.398;7.614;2022-08-04T13:52:04;1.27;;;0.50;;
50569;SDS011;36525;49.398;7.614;2022-08-04T13:54:46;1.90;;;0.50;;
50569;SDS011;36525;49.398;7.614;2022-08-04T13:57:22;2.22;;;0.50;;
50569;SDS011;36525;49.398;7.614;2022-08-04T14:00:04;1.00;;;0.40;;
50569;SDS011;36525;49.398;7.614;2022-08-04T14:02:45;1.05;;;0.50;;
50569;SDS011;36525;49.398;7.614;2022-08-04T14:05:20;1.20;;;0.50;;
50569;SDS011;36525;49.398;7.614;2022-08-04T14:10:34;5.05;;;0.60;;
50569;SDS011;36525;49.398;7.614;2022-08-04T14:13:03;2.42;;;0.40;;
50569;SDS011;36525;49.398;7.614;2022-08-04T14:15:41;2.47;;;0.45;;
50569;SDS011;36525;49.398;7.614;2022-08-04T14:18:30;0.80;;;0.45;;
50569;SDS011;36525;49.398;7.614;2022-08-04T14:21:02;4.32;;;0.52;;
50569;SDS011;36525;49.398;7.614;2022-08-04T14:23:44;2.38;;;0.55;;
50569;SDS011;36525;49.398;7.614;2022-08-04T14:28:43;1.95;;;0.35;;
50569;SDS011;36525;49.398;7.614;2022-08-04T14:31:30;0.85;;;0.40;;
50569;SDS011;36525;49.398;7.614;2022-08-04T14:33:57;1.67;;;0.40;;
50569;SDS011;36525;49.398;7.614;2022-08-04T14:36:38;5.25;;;0.50;;
50569;SDS011;36525;49.398;7.614;2022-08-04T14:39:42;10.00;;;0.43;;
50569;SDS011;36525;49.398;7.614;2022-08-04T14:42:39;3.22;;;0.52;;
50569;SDS011;36525;49.398;7.614;2022-08-04T14:45:35;3.67;;;0.40;;
50569;SDS011;36525;49.398;7.614;2022-08-04T14:48:20;2.60;;;0.40;;
50569;SDS011;36525;49.398;7.614;2022-08-04T14:50:48;2.50;;;0.47;;
50569;SDS011;36525;49.398;7.614;2022-08-04T14:53:18;3.60;;;0.50;;
50569;SDS011;36525;49.398;7.614;2022-08-04T14:55:48;1.02;;;0.40;;
50569;SDS011;36525;49.398;7.614;2022-08-04T14:58:31;7.60;;;0.70;;
50569;SDS011;36525;49.398;7.614;2022-08-04T15:01:06;8.45;;;0.70;;
50569;SDS011;36525;49.398;7.614;2022-08-04T15:03:41;2.92;;;0.55;;
50569;SDS011;36525;49.398;7.614;2022-08-04T15:06:25;3.15;;;0.60;;
50569;SDS011;36525;49.398;7.614;2022-08-04T15:08:56;2.58;;;0.60;;
50569;SDS011;36525;49.398;7.614;2022-08-04T15:11:27;12.75;;;0.70;;
50569;SDS011;36525;49.398;7.614;2022-08-04T15:13:55;12.32;;;0.70;;
50569;SDS011;36525;49.398;7.614;2022-08-04T15:16:24;4.18;;;0.60;;
50569;SDS011;36525;49.398;7.614;2022-08-04T15:18:55;4.53;;;0.55;;
50569;SDS011;36525;49.398;7.614;2022-08-04T15:21:26;2.13;;;0.60;;
50569;SDS011;36525;49.398;7.614;2022-08-04T15:23:55;0.82;;;0.40;;
50569;SDS011;36525;49.398;7.614;2022-08-04T15:26:58;2.20;;;0.65;;
50569;SDS011;36525;49.398;7.614;2022-08-04T15:29:37;2.35;;;0.45;;
50569;SDS011;36525;49.398;7.614;2022-08-04T15:32:30;7.65;;;0.50;;
50569;SDS011;36525;49.398;7.614;2022-08-04T15:35:12;2.63;;;0.50;;
50569;SDS011;36525;49.398;7.614;2022-08-04T15:38:02;3.53;;;0.50;;
50569;SDS011;36525;49.398;7.614;2022-08-04T15:43:36;7.53;;;0.50;;
50569;SDS011;36525;49.398;7.614;2022-08-04T15:52:10;1.58;;;0.60;;
50569;SDS011;36525;49.398;7.614;2022-08-04T15:54:43;2.95;;;0.50;;
50569;SDS011;36525;49.398;7.614;2022-08-04T15:57:18;1.63;;;0.60;;
50569;SDS011;36525;49.398;7.614;2022-08-04T16:01:12;3.05;;;0.43;;
50569;SDS011;36525;49.398;7.614;2022-08-04T16:19:20;7.78;;;0.75;;
50569;SDS011;36525;49.398;7.614;2022-08-04T16:22:29;9.60;;;0.98;;
50569;SDS011;36525;49.398;7.614;2022-08-04T16:27:41;5.50;;;0.63;;
50569;SDS011;36525;49.398;7.614;2022-08-04T16:30:10;4.00;;;0.63;;
50569;SDS011;36525;49.398;7.614;2022-08-04T16:32:46;5.43;;;1.23;;
50569;SDS011;36525;49.398;7.614;2022-08-04T16:35:21;9.80;;;1.35;;
50569;SDS011;36525;49.398;7.614;2022-08-04T16:37:54;11.30;;;0.82;;
50569;SDS011;36525;49.398;7.614;2022-08-04T16:40:39;8.82;;;0.55;;
50569;SDS011;36525;49.398;7.614;2022-08-04T16:43:11;7.88;;;0.70;;
50569;SDS011;36525;49.398;7.614;2022-08-04T16:48:33;2.92;;;0.60;;
50569;SDS011;36525;49.398;7.614;2022-08-04T16:53:38;2.08;;;0.50;;
50569;SDS011;36525;49.398;7.614;2022-08-04T16:56:31;1.48;;;0.55;;
50569;SDS011;36525;49.398;7.614;2022-08-04T16:59:04;2.25;;;0.60;;
50569;SDS011;36525;49.398;7.614;2022-08-04T17:01:36;1.33;;;0.43;;
50569;SDS011;36525;49.398;7.614;2022-08-04T17:04:15;1.10;;;0.40;;
50569;SDS011;36525;49.398;7.614;2022-08-04T17:06:43;1.77;;;0.50;;
50569;SDS011;36525;49.398;7.614;2022-08-04T17:09:15;4.13;;;0.60;;
50569;SDS011;36525;49.398;7.614;2022-08-04T17:11:45;15.07;;;0.70;;
50569;SDS011;36525;49.398;7.614;2022-08-04T17:14:15;1.63;;;0.47;;
50569;SDS011;36525;49.398;7.614;2022-08-04T17:16:58;3.33;;;0.50;;
50569;SDS011;36525;49.398;7.614;2022-08-04T17:19:27;2.47;;;0.57;;
50569;SDS011;36525;49.398;7.614;2022-08-04T17:22:01;2.03;;;0.60;;
50569;SDS011;36525;49.398;7.614;2022-08-04T17:24:39;3.00;;;0.60;;
50569;SDS011;36525;49.398;7.614;2022-08-04T17:27:06;5.45;;;0.60;;
50569;SDS011;36525;49.398;7.614;2022-08-04T17:29:55;1.65;;;0.40;;
50569;SDS011;36525;49.398;7.614;2022-08-04T17:32:22;1.80;;;0.50;;
50569;SDS011;36525;49.398;7.614;2022-08-04T17:34:51;3.10;;;0.50;;
50569;SDS011;36525;49.398;7.614;2022-08-04T17:37:22;8.38;;;1.13;;
50569;SDS011;36525;49.398;7.614;2022-08-04T17:40:14;3.47;;;0.60;;
50569;SDS011;36525;49.398;7.614;2022-08-04T17:43:03;2.47;;;0.50;;
50569;SDS011;36525;49.398;7.614;2022-08-04T17:54:35;7.25;;;1.45;;
50569;SDS011;36525;49.398;7.614;2022-08-04T17:57:16;5.53;;;1.27;;
50569;SDS011;36525;49.398;7.614;2022-08-04T17:59:51;1.25;;;0.70;;
50569;SDS011;36525;49.398;7.614;2022-08-04T18:02:27;2.60;;;0.70;;
50569;SDS011;36525;49.398;7.614;2022-08-04T18:04:59;2.35;;;0.60;;
50569;SDS011;36525;49.398;7.614;2022-08-04T18:07:37;4.53;;;0.60;;
50569;SDS011;36525;49.398;7.614;2022-08-04T18:10:35;1.58;;;0.43;;
50569;SDS011;36525;49.398;7.614;2022-08-04T18:13:21;1.08;;;0.50;;
50569;SDS011;36525;49.398;7.614;2022-08-04T18:16:02;5.75;;;0.60;;
50569;SDS011;36525;49.398;7.614;2022-08-04T18:19:05;6.07;;;0.65;;
50569;SDS011;36525;49.398;7.614;2022-08-04T18:21:38;1.80;;;0.70;;
50569;SDS011;36525;49.398;7.614;2022-08-04T18:24:25;1.30;;;0.50;;
50569;SDS011;36525;49.398;7.614;2022-08-04T18:27:18;2.45;;;0.85;;
50569;SDS011;36525;49.398;7.614;2022-08-04T18:29:49;2.03;;;0.60;;
50569;SDS011;36525;49.398;7.614;2022-08-04T18:32:37;2.05;;;0.52;;
50569;SDS011;36525;49.398;7.614;2022-08-04T18:35:24;2.58;;;0.47;;
50569;SDS011;36525;49.398;7.614;2022-08-04T18:38:12;1.15;;;0.50;;
50569;SDS011;36525;49.398;7.614;2022-08-04T18:40:59;1.80;;;0.57;;
50569;SDS011;36525;49.398;7.614;2022-08-04T18:43:26;1.70;;;0.50;;
50569;SDS011;36525;49.398;7.614;2022-08-04T18:46:05;2.72;;;0.60;;
50569;SDS011;36525;49.398;7.614;2022-08-04T18:48:40;8.05;;;0.65;;
50569;SDS011;36525;49.398;7.614;2022-08-04T18:51:10;3.00;;;0.60;;
50569;SDS011;36525;49.398;7.614;2022-08-04T18:53:56;1.40;;;0.60;;
50569;SDS011;36525;49.398;7.614;2022-08-04T18:56:25;3.38;;;0.90;;
50569;SDS011;36525;49.398;7.614;2022-08-04T18:58:57;4.35;;;0.60;;
50569;SDS011;36525;49.398;7.614;2022-08-04T19:01:28;5.72;;;0.80;;
50569;SDS011;36525;49.398;7.614;2022-08-04T19:04:16;1.25;;;0.50;;
50569;SDS011;36525;49.398;7.614;2022-08-04T19:07:02;1.75;;;0.63;;
50569;SDS011;36525;49.398;7.614;2022-08-04T19:09:51;3.40;;;0.60;;
50569;SDS011;36525;49.398;7.614;2022-08-04T19:14:53;2.85;;;0.80;;
50569;SDS011;36525;49.398;7.614;2022-08-04T19:17:36;2.22;;;0.95;;
50569;SDS011;36525;49.398;7.614;2022-08-04T19:20:23;3.63;;;0.70;;
50569;SDS011;36525;49.398;7.614;2022-08-04T19:22:52;3.47;;;0.80;;
50569;SDS011;36525;49.398;7.614;2022-08-04T19:25:40;1.25;;;0.70;;
50569;SDS011;36525;49.398;7.614;2022-08-04T19:28:28;3.10;;;0.70;;
50569;SDS011;36525;49.398;7.614;2022-08-04T19:31:19;6.07;;;1.42;;
50569;SDS011;36525;49.398;7.614;2022-08-04T19:34:05;1.77;;;0.63;;
50569;SDS011;36525;49.398;7.614;2022-08-04T19:36:32;1.73;;;0.70;;
50569;SDS011;36525;49.398;7.614;2022-08-04T19:39:05;5.93;;;0.80;;
50569;SDS011;36525;49.398;7.614;2022-08-04T19:41:37;3.28;;;0.80;;
50569;SDS011;36525;49.398;7.614;2022-08-04T19:44:24;1.75;;;0.70;;
50569;SDS011;36525;49.398;7.614;2022-08-04T19:46:55;4.65;;;0.60;;
50569;SDS011;36525;49.398;7.614;2022-08-04T19:49:27;4.70;;;0.82;;
50569;SDS011;36525;49.398;7.614;2022-08-04T19:52:15;4.47;;;0.90;;
50569;SDS011;36525;49.398;7.614;2022-08-04T19:54:59;3.72;;;1.15;;
50569;SDS011;36525;49.398;7.614;2022-08-04T19:57:37;3.13;;;1.20;;
50569;SDS011;36525;49.398;7.614;2022-08-04T20:00:14;4.10;;;1.80;;
50569;SDS011;36525;49.398;7.614;2022-08-04T20:02:59;4.70;;;1.05;;
50569;SDS011;36525;49.398;7.614;2022-08-04T20:05:28;2.40;;;0.80;;
50569;SDS011;36525;49.398;7.614;2022-08-04T20:08:15;3.95;;;0.75;;
50569;SDS011;36525;49.398;7.614;2022-08-04T20:10:43;2.80;;;0.82;;
50569;SDS011;36525;49.398;7.614;2022-08-04T20:13:17;5.65;;;1.00;;
50569;SDS011;36525;49.398;7.614;2022-08-04T20:15:55;6.78;;;1.30;;
50569;SDS011;36525;49.398;7.614;2022-08-04T20:18:25;8.88;;;1.10;;
50569;SDS011;36525;49.398;7.614;2022-08-04T20:21:02;7.57;;;1.20;;
50569;SDS011;36525;49.398;7.614;2022-08-04T20:23:47;5.05;;;1.25;;
50569;SDS011;36525;49.398;7.614;2022-08-04T20:26:15;4.80;;;0.93;;
50569;SDS011;36525;49.398;7.614;2022-08-04T20:28:42;4.93;;;1.10;;
50569;SDS011;36525;49.398;7.614;2022-08-04T20:31:11;3.58;;;0.90;;
50569;SDS011;36525;49.398;7.614;2022-08-04T20:33:43;2.42;;;0.82;;